createdAt,value
2019-02-24T00:01:21.042Z,91.90
2019-02-24T00:03:52.126Z,91.70
2019-02-24T00:06:22.858Z,92.00
2019-02-24T00:08:53.791Z,92.10
2019-02-24T00:11:24.631Z,92.00
2019-02-24T00:13:55.373Z,92.00
2019-02-24T00:16:25.964Z,91.90
2019-02-24T00:18:56.512Z,92.00
2019-02-24T00:21:27.052Z,91.60
2019-02-24T00:23:57.745Z,91.60
2019-02-24T00:26:28.349Z,91.70
2019-02-24T00:28:59.113Z,92.10
2019-02-24T00:31:29.746Z,92.10
2019-02-24T00:34:00.482Z,91.90
2019-02-24T00:36:31.318Z,92.10
2019-02-24T00:39:01.871Z,92.10
2019-02-24T00:41:34.105Z,92.10
2019-02-24T00:44:04.651Z,92.20
2019-02-24T00:46:38.643Z,92.30
2019-02-24T00:49:09.655Z,92.00
2019-02-24T00:51:40.275Z,92.10
2019-02-24T00:54:11.119Z,91.90
2019-02-24T00:56:41.930Z,92.00
2019-02-24T00:59:12.933Z,91.70
2019-02-24T01:01:44.077Z,91.50
2019-02-24T01:04:14.626Z,91.80
2019-02-24T01:06:45.353Z,91.40
2019-02-24T01:09:16.255Z,91.40
2019-02-24T01:11:46.953Z,91.40
2019-02-24T01:14:17.876Z,91.20
2019-02-24T01:16:48.776Z,90.90
2019-02-24T01:19:19.512Z,90.90
2019-02-24T01:21:50.418Z,90.70
2019-02-24T01:24:21.306Z,90.60
2019-02-24T01:26:52.002Z,90.50
2019-02-24T01:29:22.930Z,90.40
2019-02-24T01:31:53.538Z,90.50
2019-02-24T01:34:24.092Z,90.20
2019-02-24T01:36:54.926Z,90.50
2019-02-24T01:39:25.648Z,90.30
2019-02-24T01:41:56.330Z,90.60
2019-02-24T01:44:27.050Z,90.70
2019-02-24T01:46:57.500Z,90.60
2019-02-24T01:49:27.977Z,90.40
2019-02-24T01:51:58.552Z,90.70
2019-02-24T01:54:29.224Z,90.60
2019-02-24T01:56:59.716Z,90.40
2019-02-24T01:59:31.402Z,90.20
2019-02-24T02:02:01.900Z,90.30
2019-02-24T02:04:32.472Z,90.10
2019-02-24T02:07:02.959Z,90.20
2019-02-24T02:09:33.434Z,90.10
2019-02-24T02:12:04.024Z,90.10
2019-02-24T02:14:34.489Z,90.10
2019-02-24T02:17:05.013Z,90.10
2019-02-24T02:19:35.636Z,90.00
2019-02-24T02:22:06.125Z,90.20
2019-02-24T02:24:36.707Z,90.00
2019-02-24T02:27:07.109Z,89.90
2019-02-24T02:29:37.547Z,90.00
2019-02-24T02:32:08.161Z,90.00
2019-02-24T02:34:38.765Z,90.30
2019-02-24T02:37:09.280Z,90.20
2019-02-24T02:39:40.494Z,90.10
2019-02-24T02:42:10.947Z,90.10
2019-02-24T02:44:41.478Z,90.80
2019-02-24T02:47:12.085Z,90.20
2019-02-24T02:49:42.930Z,90.50
2019-02-24T02:52:13.475Z,90.50
2019-02-24T02:54:43.952Z,90.50
2019-02-24T02:57:14.743Z,90.60
2019-02-24T02:59:45.270Z,90.60
2019-02-24T03:02:24.097Z,90.60
2019-02-24T03:04:48.320Z,90.40
2019-02-24T03:07:37.156Z,90.50
2019-02-24T03:10:07.614Z,90.60
2019-02-24T03:12:38.148Z,90.70
2019-02-24T03:15:08.790Z,90.70
2019-02-24T03:17:39.534Z,90.80
2019-02-24T03:20:10.567Z,90.80
2019-02-24T03:22:41.392Z,90.80
2019-02-24T03:25:12.043Z,90.50
2019-02-24T03:27:42.757Z,90.50
2019-02-24T03:30:13.504Z,90.10
2019-02-24T03:32:44.341Z,90.10
2019-02-24T03:35:14.914Z,90.20
2019-02-24T03:37:45.516Z,90.10
2019-02-24T03:40:16.156Z,90.20
2019-02-24T03:42:46.763Z,90.20
2019-02-24T03:45:17.501Z,89.90
2019-02-24T03:47:48.251Z,90.00
2019-02-24T03:50:18.701Z,90.30
2019-02-24T03:52:49.181Z,90.10
2019-02-24T03:55:19.723Z,90.30
2019-02-24T03:57:50.703Z,90.30
2019-02-24T04:00:21.287Z,90.30
2019-02-24T04:02:51.757Z,89.80
2019-02-24T04:05:22.313Z,89.70
2019-02-24T04:07:53.234Z,90.00
2019-02-24T04:10:23.809Z,90.10
2019-02-24T04:12:54.530Z,90.10
2019-02-24T04:15:25.242Z,90.10
2019-02-24T04:17:56.006Z,90.50
2019-02-24T04:20:26.596Z,90.10
2019-02-24T04:22:59.925Z,90.30
2019-02-24T04:25:30.525Z,90.40
2019-02-24T04:28:01.111Z,90.40
2019-02-24T04:30:31.588Z,90.50
2019-02-24T04:33:02.512Z,90.50
2019-02-24T04:35:33.531Z,90.70
2019-02-24T04:38:04.076Z,90.60
2019-02-24T04:40:34.862Z,90.80
2019-02-24T04:43:05.596Z,90.50
2019-02-24T04:45:40.498Z,90.80
2019-02-24T04:48:11.290Z,90.80
2019-02-24T04:50:42.044Z,91.10
2019-02-24T04:53:13.012Z,90.90
2019-02-24T04:55:43.879Z,90.90
2019-02-24T04:58:14.818Z,90.90
2019-02-24T05:00:45.646Z,91.00
2019-02-24T05:03:16.265Z,90.70
2019-02-24T05:05:47.062Z,90.80
2019-02-24T05:08:17.491Z,90.90
2019-02-24T05:10:47.977Z,90.80
2019-02-24T05:13:18.879Z,90.80
2019-02-24T05:15:49.718Z,90.80
2019-02-24T05:18:20.238Z,90.80
2019-02-24T05:20:50.831Z,91.00
2019-02-24T05:23:21.329Z,91.20
2019-02-24T05:25:51.866Z,91.10
2019-02-24T05:28:22.299Z,91.10
2019-02-24T05:30:53.962Z,91.00
2019-02-24T05:33:24.719Z,91.00
2019-02-24T05:35:55.451Z,90.90
2019-02-24T05:38:26.079Z,91.00
2019-02-24T05:40:56.651Z,91.10
2019-02-24T05:43:27.191Z,91.20
2019-02-24T05:45:57.911Z,91.30
2019-02-24T05:48:29.990Z,91.20
2019-02-24T05:51:00.723Z,91.70
2019-02-24T05:53:31.360Z,91.00
2019-02-24T05:56:01.982Z,91.20
2019-02-24T05:58:32.633Z,91.00
2019-02-24T06:01:03.456Z,91.20
2019-02-24T06:03:34.084Z,91.20
2019-02-24T06:06:04.809Z,91.30
2019-02-24T06:08:35.377Z,91.30
2019-02-24T06:11:06.078Z,91.40
2019-02-24T06:13:37.690Z,91.30
2019-02-24T06:16:08.164Z,91.30
2019-02-24T06:18:38.690Z,91.30
2019-02-24T06:21:09.818Z,91.30
2019-02-24T06:23:40.716Z,91.20
2019-02-24T06:26:11.416Z,91.30
2019-02-24T06:28:42.048Z,91.40
2019-02-24T06:31:12.694Z,91.00
2019-02-24T06:33:43.488Z,91.40
2019-02-24T06:36:14.077Z,91.40
2019-02-24T06:38:47.730Z,91.40
2019-02-24T06:41:18.337Z,91.50
2019-02-24T06:43:49.006Z,91.40
2019-02-24T06:46:19.779Z,91.30
2019-02-24T06:48:51.252Z,91.80
2019-02-24T06:51:21.856Z,91.70
2019-02-24T06:53:52.757Z,91.70
2019-02-24T06:56:23.311Z,91.60
2019-02-24T06:58:55.607Z,91.60
2019-02-24T07:01:26.437Z,91.50
2019-02-24T07:03:57.199Z,91.60
2019-02-24T07:06:27.893Z,91.60
2019-02-24T07:08:58.633Z,91.50
2019-02-24T07:11:29.324Z,91.50
2019-02-24T07:13:59.806Z,91.50
2019-02-24T07:16:30.271Z,91.80
2019-02-24T07:19:00.719Z,91.60
2019-02-24T07:21:31.620Z,91.70
2019-02-24T07:24:02.377Z,92.00
2019-02-24T07:26:33.199Z,91.60
2019-02-24T07:29:04.624Z,91.80
2019-02-24T07:31:35.082Z,91.70
2019-02-24T07:34:05.677Z,91.50
2019-02-24T07:36:36.133Z,91.50
2019-02-24T07:39:07.320Z,91.40
2019-02-24T07:41:38.926Z,91.50
2019-02-24T07:44:09.601Z,91.70
2019-02-24T07:46:40.096Z,91.50
2019-02-24T07:49:10.746Z,91.60
2019-02-24T07:51:41.250Z,91.80
2019-02-24T07:54:12.114Z,91.60
2019-02-24T07:56:44.342Z,91.30
2019-02-24T07:59:15.220Z,91.40
2019-02-24T08:01:46.100Z,91.40
2019-02-24T08:04:16.698Z,91.40
2019-02-24T08:06:47.852Z,91.40
2019-02-24T08:09:19.458Z,91.40
2019-02-24T08:11:50.569Z,91.40
2019-02-24T08:14:21.183Z,90.90
2019-02-24T08:16:52.290Z,91.10
2019-02-24T08:19:23.209Z,90.90
2019-02-24T08:21:53.853Z,90.90
2019-02-24T08:24:25.398Z,90.40
2019-02-24T08:26:56.023Z,90.50
2019-02-24T08:29:27.045Z,90.40
2019-02-24T08:31:57.475Z,90.00
2019-02-24T08:34:28.075Z,89.20
2019-02-24T08:36:58.868Z,90.20
2019-02-24T08:39:30.727Z,89.90
2019-02-24T08:42:01.617Z,89.30
2019-02-24T08:44:32.167Z,89.60
2019-02-24T08:47:02.959Z,89.00
2019-02-24T08:49:33.831Z,89.50
2019-02-24T08:52:04.706Z,88.30
2019-02-24T08:54:35.403Z,88.30
2019-02-24T08:57:07.151Z,87.90
2019-02-24T08:59:38.405Z,87.60
2019-02-24T09:02:09.232Z,87.90
2019-02-24T09:04:40.010Z,88.20
2019-02-24T09:07:10.489Z,87.30
2019-02-24T09:09:41.101Z,87.20
2019-02-24T09:12:11.939Z,85.20
2019-02-24T09:14:42.971Z,82.80
2019-02-24T09:17:13.719Z,83.90
2019-02-24T09:19:44.530Z,84.90
2019-02-24T09:22:15.453Z,83.80
2019-02-24T09:24:45.988Z,84.30
2019-02-24T09:27:16.422Z,84.90
2019-02-24T09:29:47.082Z,85.60
2019-02-24T09:32:17.743Z,83.10
2019-02-24T09:34:48.579Z,83.70
2019-02-24T09:37:19.366Z,85.40
2019-02-24T09:39:49.834Z,86.30
2019-02-24T09:42:20.736Z,86.30
2019-02-24T09:44:51.359Z,85.30
2019-02-24T09:47:22.262Z,85.00
2019-02-24T09:49:52.929Z,85.60
2019-02-24T09:52:23.692Z,85.60
2019-02-24T09:54:54.419Z,86.50
2019-02-24T09:57:25.115Z,86.00
2019-02-24T09:59:55.722Z,84.90
2019-02-24T10:02:26.303Z,84.40
2019-02-24T10:04:57.045Z,85.10
2019-02-24T10:07:27.575Z,85.60
2019-02-24T10:09:58.073Z,86.20
2019-02-24T10:12:28.647Z,85.90
2019-02-24T10:14:59.433Z,85.20
2019-02-24T10:17:30.916Z,85.00
2019-02-24T10:20:01.768Z,84.60
2019-02-24T10:22:33.713Z,84.70
2019-02-24T10:25:05.972Z,85.90
2019-02-24T10:27:37.558Z,84.60
2019-02-24T10:30:09.005Z,85.00
2019-02-24T10:32:39.979Z,84.60
2019-02-24T10:35:11.397Z,84.90
2019-02-24T10:37:42.206Z,85.50
2019-02-24T10:40:13.935Z,85.20
2019-02-24T10:42:45.806Z,82.50
2019-02-24T10:45:16.437Z,81.90
2019-02-24T10:47:47.318Z,82.30
2019-02-24T10:50:17.926Z,82.50
2019-02-24T10:52:48.646Z,83.00
2019-02-24T10:55:20.118Z,82.60
2019-02-24T10:57:50.823Z,82.90
2019-02-24T11:00:21.767Z,84.30
2019-02-24T11:02:52.632Z,85.30
2019-02-24T11:05:23.405Z,84.80
2019-02-24T11:07:54.127Z,83.70
2019-02-24T11:10:33.316Z,84.10
2019-02-24T11:13:03.875Z,83.50
2019-02-24T11:15:34.418Z,82.10
2019-02-24T11:18:04.943Z,82.50
2019-02-24T11:20:36.041Z,80.70
2019-02-24T11:23:06.889Z,80.40
2019-02-24T11:25:37.609Z,78.70
2019-02-24T11:28:08.171Z,77.60
2019-02-24T11:30:39.130Z,77.80
2019-02-24T11:33:09.762Z,75.80
2019-02-24T11:35:40.594Z,74.70
2019-02-24T11:38:11.244Z,75.10
2019-02-24T11:40:41.903Z,75.80
2019-02-24T11:43:12.414Z,75.50
2019-02-24T11:45:42.815Z,76.50
2019-02-24T11:48:13.353Z,74.70
2019-02-24T11:50:44.189Z,74.30
2019-02-24T11:53:14.850Z,75.40
2019-02-24T11:55:45.923Z,74.50
2019-02-24T11:58:17.723Z,75.60
2019-02-24T12:00:48.315Z,73.90
2019-02-24T12:03:18.853Z,75.70
2019-02-24T12:05:50.623Z,75.50
2019-02-24T12:08:21.126Z,72.00
2019-02-24T12:10:53.211Z,72.80
2019-02-24T12:13:24.045Z,72.60
2019-02-24T12:15:54.999Z,73.20
2019-02-24T12:18:26.820Z,73.20
2019-02-24T12:20:57.592Z,78.00
2019-02-24T12:23:28.220Z,79.50
2019-02-24T12:25:58.956Z,82.10
2019-02-24T12:28:29.424Z,82.60
2019-02-24T12:31:00.226Z,82.80
2019-02-24T12:33:31.398Z,81.90
2019-02-24T12:36:27.360Z,81.10
2019-02-24T12:38:58.068Z,81.00
2019-02-24T12:41:28.742Z,80.50
2019-02-24T12:43:59.258Z,78.40
2019-02-24T12:46:29.960Z,76.60
2019-02-24T12:49:00.644Z,70.40
2019-02-24T12:51:31.461Z,71.30
2019-02-24T12:54:02.018Z,68.80
2019-02-24T12:56:32.622Z,67.50
2019-02-24T12:59:03.350Z,67.80
2019-02-24T13:01:33.928Z,68.10
2019-02-24T13:04:04.548Z,67.70
2019-02-24T13:06:35.420Z,67.80
2019-02-24T13:13:01.245Z,66.70
2019-02-24T13:15:32.003Z,72.80
2019-02-24T13:18:03.039Z,71.90
2019-02-24T13:20:33.835Z,71.60
2019-02-24T13:23:05.048Z,70.80
2019-02-24T13:25:37.286Z,71.20
2019-02-24T13:28:07.805Z,71.80
2019-02-24T13:30:38.441Z,74.40
2019-02-24T13:33:09.255Z,69.50
2019-02-24T13:35:40.744Z,67.20
2019-02-24T13:38:11.793Z,67.00
2019-02-24T13:40:42.411Z,66.90
2019-02-24T13:43:13.200Z,65.90
2019-02-24T13:45:44.091Z,65.10
2019-02-24T13:48:16.344Z,65.10
2019-02-24T13:50:46.869Z,67.10
2019-02-24T13:53:17.863Z,65.80
2019-02-24T13:55:48.768Z,64.40
2019-02-24T13:58:19.688Z,63.90
2019-02-24T14:00:50.386Z,64.60
2019-02-24T14:03:21.383Z,66.40
2019-02-24T14:05:52.326Z,67.50
2019-02-24T14:08:23.256Z,70.10
2019-02-24T14:10:54.402Z,69.80
2019-02-24T14:13:25.350Z,71.50
2019-02-24T14:15:56.318Z,71.70
2019-02-24T14:18:27.128Z,71.10
2019-02-24T14:20:57.842Z,70.90
2019-02-24T14:23:28.492Z,70.90
2019-02-24T14:25:59.892Z,71.10
2019-02-24T14:28:30.846Z,72.80
2019-02-24T14:31:01.807Z,75.50
2019-02-24T14:33:32.641Z,75.80
2019-02-24T14:36:03.644Z,75.30
2019-02-24T14:38:34.319Z,74.20
2019-02-24T14:41:05.259Z,76.20
2019-02-24T14:43:35.959Z,77.20
2019-02-24T14:46:06.731Z,76.80
2019-02-24T14:48:37.815Z,74.30
2019-02-24T14:51:08.527Z,74.80
2019-02-24T14:53:39.075Z,75.80
2019-02-24T14:56:09.631Z,75.90
2019-02-24T14:58:40.951Z,77.00
2019-02-24T15:01:11.557Z,77.70
2019-02-24T15:03:42.122Z,78.80
2019-02-24T15:06:12.847Z,79.30
2019-02-24T15:08:43.826Z,78.70
2019-02-24T15:11:14.522Z,78.40
2019-02-24T15:14:03.432Z,77.80
2019-02-24T15:16:34.375Z,77.70
2019-02-24T15:19:05.341Z,76.90
2019-02-24T15:21:35.930Z,76.70
2019-02-24T15:24:06.983Z,77.80
2019-02-24T15:26:38.031Z,78.00
2019-02-24T15:29:09.200Z,78.00
2019-02-24T15:31:39.814Z,79.00
2019-02-24T15:34:10.790Z,79.70
2019-02-24T15:36:42.830Z,80.00
2019-02-24T15:39:13.748Z,80.60
2019-02-24T15:41:44.308Z,80.80
2019-02-24T15:44:14.966Z,81.10
2019-02-24T15:46:45.801Z,81.90
2019-02-24T15:49:16.564Z,81.90
2019-02-24T15:51:47.582Z,82.30
2019-02-24T15:54:18.171Z,82.50
2019-02-24T15:56:49.144Z,82.80
2019-02-24T15:59:19.829Z,83.30
2019-02-24T16:01:50.585Z,83.70
2019-02-24T16:04:21.421Z,83.60
2019-02-24T16:06:52.124Z,83.50
2019-02-24T16:09:23.042Z,83.80
2019-02-24T16:11:53.818Z,84.70
2019-02-24T16:14:24.406Z,84.90
2019-02-24T16:16:55.256Z,85.70
2019-02-24T16:19:26.140Z,85.80
2019-02-24T16:21:56.681Z,86.70
2019-02-24T16:24:28.090Z,86.80
2019-02-24T16:26:58.826Z,87.60
2019-02-24T16:29:29.589Z,88.00
2019-02-24T16:32:00.077Z,88.00
2019-02-24T16:34:30.814Z,88.20
2019-02-24T16:37:01.753Z,88.20
2019-02-24T16:39:32.819Z,88.50
2019-02-24T16:42:03.461Z,88.70
2019-02-24T16:44:34.247Z,89.00
2019-02-24T16:47:05.324Z,88.80
2019-02-24T16:49:35.845Z,89.30
2019-02-24T16:52:06.689Z,89.20
2019-02-24T16:54:56.323Z,89.60
2019-02-24T16:57:26.808Z,89.70
2019-02-24T16:59:57.614Z,89.90
2019-02-24T17:02:28.496Z,90.20
2019-02-24T17:04:59.395Z,90.20
2019-02-24T17:07:30.174Z,90.40
2019-02-24T17:10:00.930Z,90.50
2019-02-24T17:12:31.895Z,90.70
2019-02-24T17:15:02.811Z,90.60
2019-02-24T17:17:34.556Z,90.80
2019-02-24T17:20:06.522Z,90.80
2019-02-24T17:22:37.107Z,90.90
2019-02-24T17:25:09.590Z,90.90
2019-02-24T17:27:40.108Z,91.00
2019-02-24T17:30:11.884Z,91.20
2019-02-24T17:32:42.811Z,91.20
2019-02-24T17:35:14.384Z,91.20
2019-02-24T17:37:45.256Z,91.30
2019-02-24T17:40:19.224Z,91.60
2019-02-24T17:42:49.987Z,91.80
2019-02-24T17:45:20.544Z,92.30
2019-02-24T17:47:51.093Z,92.80
2019-02-24T17:50:22.016Z,93.00
2019-02-24T17:52:52.844Z,93.40
2019-02-24T17:55:24.278Z,93.50
2019-02-24T17:57:55.155Z,93.50
2019-02-24T18:00:31.277Z,93.60
2019-02-24T18:03:02.469Z,93.70
2019-02-24T18:05:33.383Z,93.50
2019-02-24T18:08:04.435Z,93.50
2019-02-24T18:10:34.941Z,93.50
2019-02-24T18:13:05.913Z,93.50
2019-02-24T18:15:36.551Z,93.40
2019-02-24T18:18:07.633Z,93.50
2019-02-24T18:20:39.069Z,93.40
2019-02-24T18:23:09.847Z,93.30
2019-02-24T18:25:41.044Z,93.30
2019-02-24T18:28:11.905Z,93.30
2019-02-24T18:30:42.904Z,93.20
2019-02-24T18:33:13.989Z,93.30
2019-02-24T18:35:44.575Z,93.20
2019-02-24T18:38:15.509Z,93.10
2019-02-24T18:40:46.162Z,93.10
2019-02-24T18:43:17.222Z,93.20
2019-02-24T18:45:47.965Z,93.00
2019-02-24T18:48:18.861Z,93.00
2019-02-24T18:50:49.788Z,93.00
2019-02-24T18:53:20.387Z,93.20
2019-02-24T18:55:51.163Z,93.60
2019-02-24T18:58:22.394Z,93.30
2019-02-24T19:00:54.309Z,93.50
2019-02-24T19:03:26.615Z,93.60
2019-02-24T19:05:58.269Z,93.80
2019-02-24T19:08:29.152Z,93.90
2019-02-24T19:11:00.820Z,93.90
2019-02-24T19:13:31.732Z,94.00
2019-02-24T19:16:02.363Z,94.00
2019-02-24T19:18:33.156Z,94.20
2019-02-24T19:21:04.207Z,94.20
2019-02-24T19:23:34.913Z,94.30
2019-02-24T19:26:06.071Z,94.40
2019-02-24T19:28:37.679Z,94.50
2019-02-24T19:31:10.231Z,94.60
2019-02-24T19:33:48.147Z,94.60
2019-02-24T19:36:19.542Z,94.70
2019-02-24T19:38:51.135Z,94.80
2019-02-24T19:41:22.889Z,94.90
2019-02-24T19:43:54.127Z,94.90
2019-02-24T19:46:25.115Z,95.00
2019-02-24T19:48:57.562Z,95.10
2019-02-24T19:51:31.085Z,95.00
2019-02-24T19:54:02.155Z,95.00
2019-02-24T19:56:33.197Z,95.00
2019-02-24T19:59:04.017Z,95.10
2019-02-24T20:01:34.729Z,95.00
2019-02-24T20:04:06.303Z,95.00
2019-02-24T20:06:37.113Z,95.20
2019-02-24T20:09:09.331Z,95.00
2019-02-24T20:11:42.053Z,94.90
2019-02-24T20:14:12.720Z,94.90
2019-02-24T20:16:43.566Z,94.80
2019-02-24T20:19:14.430Z,94.70
2019-02-24T20:21:45.504Z,94.70
2019-02-24T20:24:16.670Z,94.80
2019-02-24T20:26:47.404Z,94.80
2019-02-24T20:29:18.040Z,94.90
2019-02-24T20:31:49.414Z,95.00
2019-02-24T20:34:25.614Z,95.10
2019-02-24T20:36:53.036Z,95.10
2019-02-24T20:39:24.076Z,95.30
2019-02-24T20:41:55.353Z,95.40
2019-02-24T20:44:27.254Z,95.40
2019-02-24T20:46:58.276Z,95.50
2019-02-24T20:49:30.109Z,95.50
2019-02-24T20:52:01.747Z,95.40
2019-02-24T20:54:32.394Z,95.50
2019-02-24T20:57:03.289Z,95.40
2019-02-24T20:59:34.204Z,95.40
2019-02-24T21:02:05.051Z,95.40
2019-02-24T21:04:35.867Z,95.30
2019-02-24T21:07:06.714Z,95.60
2019-02-24T21:09:37.560Z,95.40
2019-02-24T21:12:08.223Z,95.40
2019-02-24T21:14:38.955Z,95.40
2019-02-24T21:17:09.833Z,95.40
2019-02-24T21:19:40.513Z,95.40
2019-02-24T21:22:11.257Z,95.30
2019-02-24T21:24:41.955Z,95.20
2019-02-24T21:27:12.815Z,95.10
2019-02-24T21:29:43.690Z,95.00
2019-02-24T21:32:18.134Z,95.10
2019-02-24T21:34:48.674Z,95.10
2019-02-24T21:37:19.666Z,95.10
2019-02-24T21:39:52.442Z,95.10
2019-02-24T21:42:25.174Z,95.10
2019-02-24T21:44:56.196Z,95.10
2019-02-24T21:47:38.682Z,95.20
2019-02-24T21:50:10.740Z,95.40
2019-02-24T21:52:41.402Z,95.60
2019-02-24T21:55:12.336Z,95.80
2019-02-24T21:57:43.041Z,95.80
2019-02-24T22:00:19.206Z,95.90
2019-02-24T22:02:50.336Z,95.70
2019-02-24T22:05:20.899Z,95.70
2019-02-24T22:07:51.788Z,95.70
2019-02-24T22:10:22.433Z,95.50
2019-02-24T22:12:52.944Z,95.60
2019-02-24T22:15:23.595Z,95.50
2019-02-24T22:17:54.319Z,95.60
2019-02-24T22:20:24.805Z,95.70
2019-02-24T22:22:55.459Z,95.70
2019-02-24T22:25:26.237Z,95.80
2019-02-24T22:27:57.003Z,95.80
2019-02-24T22:30:27.603Z,95.90
2019-02-24T22:32:58.180Z,95.80
2019-02-24T22:35:29.059Z,96.20
2019-02-24T22:37:59.813Z,95.80
2019-02-24T22:40:30.363Z,95.90
2019-02-24T22:43:01.417Z,95.90
2019-02-24T22:45:32.388Z,96.00
2019-02-24T22:48:03.273Z,96.10
2019-02-24T22:50:34.155Z,96.00
2019-02-24T22:53:05.127Z,96.10
2019-02-24T22:55:36.413Z,96.10
2019-02-24T22:58:07.307Z,96.10
2019-02-24T23:01:02.515Z,96.10
2019-02-24T23:03:45.834Z,96.20
2019-02-24T23:06:16.713Z,96.20
2019-02-24T23:08:47.635Z,96.20
2019-02-24T23:11:19.378Z,96.20
2019-02-24T23:13:50.086Z,96.20
2019-02-24T23:16:21.106Z,96.30
2019-02-24T23:18:52.716Z,96.30
2019-02-24T23:21:23.526Z,96.30
2019-02-24T23:23:54.118Z,96.40
2019-02-24T23:26:24.690Z,96.50
2019-02-24T23:28:55.548Z,96.50
2019-02-24T23:31:26.078Z,96.40
2019-02-24T23:33:56.848Z,96.50
2019-02-24T23:36:27.283Z,96.40
2019-02-24T23:38:58.261Z,96.30
2019-02-24T23:41:28.830Z,96.30
2019-02-24T23:43:59.578Z,96.30
2019-02-24T23:46:30.238Z,96.20
2019-02-24T23:49:02.325Z,96.20
2019-02-24T23:51:32.971Z,96.10
2019-02-24T23:54:03.629Z,96.00
2019-02-24T23:56:35.244Z,95.90
2019-02-24T23:59:08.168Z,95.80
